createdAt,value
2018-12-21T00:01:18.757Z,2.60
2018-12-21T00:06:20.862Z,2.73
2018-12-21T00:11:23.065Z,2.80
2018-12-21T00:16:25.294Z,3.00
2018-12-21T00:21:27.368Z,2.97
2018-12-21T00:26:29.442Z,2.37
2018-12-21T00:31:37.285Z,2.40
2018-12-21T00:36:45.145Z,2.50
2018-12-21T00:41:46.918Z,3.47
2018-12-21T00:46:52.162Z,3.40
2018-12-21T00:51:54.233Z,3.37
2018-12-21T00:56:56.322Z,3.40
2018-12-21T01:01:58.430Z,3.17
2018-12-21T01:07:00.640Z,3.57
2018-12-21T01:12:03.309Z,2.97
2018-12-21T01:17:06.061Z,3.80
2018-12-21T01:22:08.466Z,3.40
2018-12-21T01:27:10.534Z,3.17
2018-12-21T01:32:13.326Z,3.53
2018-12-21T01:37:15.502Z,3.30
2018-12-21T01:42:17.770Z,3.43
2018-12-21T01:47:19.947Z,3.47
2018-12-21T01:52:22.089Z,3.20
2018-12-21T01:57:24.241Z,3.73
2018-12-21T02:02:26.305Z,4.07
2018-12-21T02:07:28.373Z,4.37
2018-12-21T02:12:30.649Z,4.50
2018-12-21T02:17:32.718Z,5.50
2018-12-21T02:22:34.758Z,5.70
2018-12-21T02:27:36.913Z,6.10
2018-12-21T02:32:39.014Z,6.57
2018-12-21T02:37:41.172Z,7.27
2018-12-21T02:42:43.207Z,8.57
2018-12-21T02:47:45.606Z,11.10
2018-12-21T02:52:47.890Z,8.53
2018-12-21T02:57:50.055Z,4.37
2018-12-21T03:02:52.509Z,2.40
2018-12-21T03:07:54.573Z,2.67
2018-12-21T03:12:56.601Z,2.73
2018-12-21T03:17:58.869Z,2.47
2018-12-21T03:23:00.922Z,2.40
2018-12-21T03:28:03.082Z,2.57
2018-12-21T03:33:05.163Z,2.60
2018-12-21T03:38:09.142Z,2.93
2018-12-21T03:43:11.318Z,2.80
2018-12-21T03:48:13.789Z,2.47
2018-12-21T03:53:15.870Z,2.70
2018-12-21T03:58:17.935Z,2.50
2018-12-21T04:03:20.755Z,2.47
2018-12-21T04:08:23.796Z,2.17
2018-12-21T04:13:25.842Z,2.90
2018-12-21T04:18:27.925Z,2.30
2018-12-21T04:23:29.966Z,2.00
2018-12-21T04:28:32.111Z,2.00
2018-12-21T04:33:34.167Z,1.80
2018-12-21T04:38:43.135Z,2.10
2018-12-21T04:43:52.314Z,1.80
2018-12-21T04:48:54.527Z,1.47
2018-12-21T04:53:57.491Z,2.00
2018-12-21T04:58:59.935Z,2.07
2018-12-21T05:04:02.234Z,1.83
2018-12-21T05:09:05.498Z,1.77
2018-12-21T05:14:08.098Z,2.00
2018-12-21T05:19:10.450Z,1.90
2018-12-21T05:24:12.501Z,1.97
2018-12-21T05:29:14.632Z,1.83
2018-12-21T05:34:16.970Z,2.57
2018-12-21T05:39:19.257Z,2.20
2018-12-21T05:44:21.553Z,2.10
2018-12-21T05:49:24.195Z,2.20
2018-12-21T05:54:26.248Z,2.30
2018-12-21T05:59:28.293Z,1.93
2018-12-21T06:04:30.505Z,2.17
2018-12-21T06:09:32.553Z,2.47
2018-12-21T06:14:34.618Z,2.40
2018-12-21T06:19:36.657Z,2.40
2018-12-21T06:24:38.824Z,2.47
2018-12-21T06:29:40.886Z,2.00
2018-12-21T06:34:43.121Z,2.20
2018-12-21T06:39:45.214Z,2.27
2018-12-21T06:44:47.397Z,2.23
2018-12-21T06:49:49.557Z,2.40
2018-12-21T06:54:52.498Z,2.07
2018-12-21T06:59:54.702Z,2.40
2018-12-21T07:04:56.761Z,2.07
2018-12-21T07:09:58.958Z,2.07
2018-12-21T07:15:01.312Z,2.40
2018-12-21T07:20:03.721Z,2.00
2018-12-21T07:25:07.002Z,1.90
2018-12-21T07:30:10.833Z,1.83
2018-12-21T07:35:15.161Z,2.20
2018-12-21T07:40:17.409Z,2.20
2018-12-21T07:45:19.697Z,2.13
2018-12-21T07:50:21.986Z,1.60
2018-12-21T07:55:24.183Z,2.10
2018-12-21T08:00:26.514Z,2.00
2018-12-21T08:05:28.569Z,2.27
2018-12-21T08:10:30.757Z,2.20
2018-12-21T08:15:33.115Z,2.37
2018-12-21T08:20:35.299Z,2.30
2018-12-21T08:25:37.522Z,2.37
2018-12-21T08:30:39.718Z,2.37
2018-12-21T08:35:41.801Z,2.20
2018-12-21T08:40:43.893Z,2.57
2018-12-21T08:45:46.006Z,2.80
2018-12-21T08:50:48.303Z,3.07
2018-12-21T08:55:50.486Z,3.50
2018-12-21T09:00:52.838Z,3.53
2018-12-21T09:05:55.033Z,3.20
2018-12-21T09:10:57.350Z,4.07
2018-12-21T09:15:59.479Z,3.40
2018-12-21T09:21:01.664Z,3.33
2018-12-21T09:26:04.789Z,3.70
2018-12-21T09:31:07.090Z,4.10
2018-12-21T09:36:09.342Z,3.70
2018-12-21T09:41:11.535Z,3.87
2018-12-21T09:46:13.737Z,3.33
2018-12-21T09:51:16.213Z,3.70
2018-12-21T09:56:18.523Z,3.80
2018-12-21T10:01:27.455Z,3.70
2018-12-21T10:06:29.657Z,2.63
2018-12-21T10:11:31.782Z,2.30
2018-12-21T10:16:33.998Z,2.50
2018-12-21T10:21:36.100Z,2.33
2018-12-21T10:26:38.210Z,3.13
2018-12-21T10:31:47.157Z,2.83
2018-12-21T10:36:49.430Z,3.50
2018-12-21T10:41:51.757Z,2.87
2018-12-21T10:46:54.039Z,2.97
2018-12-21T10:51:56.237Z,2.07
2018-12-21T10:56:59.411Z,1.83
2018-12-21T11:02:01.709Z,1.77
2018-12-21T11:07:03.941Z,1.70
2018-12-21T11:12:06.214Z,1.50
2018-12-21T11:17:08.517Z,1.50
2018-12-21T11:22:10.646Z,2.20
2018-12-21T11:27:12.822Z,1.50
2018-12-21T11:32:15.017Z,2.20
2018-12-21T11:42:29.325Z,2.40
2018-12-21T11:47:32.741Z,2.17
2018-12-21T11:52:34.862Z,1.70
2018-12-21T11:57:37.197Z,1.70
2018-12-21T12:02:46.030Z,1.70
2018-12-21T12:07:48.233Z,1.97
2018-12-21T12:12:50.393Z,2.40
2018-12-21T12:17:52.806Z,1.97
2018-12-21T12:22:54.890Z,2.00
2018-12-21T12:27:57.228Z,2.20
2018-12-21T12:32:59.435Z,1.67
2018-12-21T12:38:01.619Z,1.70
2018-12-21T12:43:03.985Z,2.10
2018-12-21T12:48:07.125Z,1.90
2018-12-21T12:53:09.290Z,1.83
2018-12-21T12:58:11.572Z,2.40
2018-12-21T13:03:13.765Z,2.13
2018-12-21T13:08:15.894Z,1.60
2018-12-21T13:13:18.081Z,1.93
2018-12-21T13:18:20.280Z,2.07
2018-12-21T13:23:22.409Z,3.80
2018-12-21T13:28:24.619Z,1.60
2018-12-21T13:33:26.686Z,1.70
2018-12-21T13:38:28.753Z,1.47
2018-12-21T13:43:30.834Z,1.80
2018-12-21T13:48:33.129Z,1.60
2018-12-21T13:53:41.145Z,1.47
2018-12-21T13:58:43.234Z,1.20
2018-12-21T14:03:45.314Z,1.40
2018-12-21T14:08:47.502Z,1.67
2018-12-21T14:13:49.726Z,1.57
2018-12-21T14:18:51.950Z,1.60
2018-12-21T14:23:54.130Z,1.50
2018-12-21T14:28:56.337Z,1.30
2018-12-21T14:33:58.589Z,1.20
2018-12-21T14:39:00.785Z,1.23
2018-12-21T14:44:03.527Z,1.63
2018-12-21T14:49:05.719Z,1.07
2018-12-21T14:54:07.799Z,1.30
2018-12-21T14:59:10.108Z,1.07
2018-12-21T15:04:12.243Z,1.30
2018-12-21T15:09:14.854Z,1.03
2018-12-21T15:14:17.182Z,1.50
2018-12-21T15:19:19.385Z,1.20
2018-12-21T15:24:21.697Z,1.00
2018-12-21T15:29:23.876Z,1.73
2018-12-21T15:34:26.146Z,1.70
2018-12-21T15:39:32.413Z,0.73
2018-12-21T15:44:35.789Z,0.80
2018-12-21T15:49:38.529Z,0.77
2018-12-21T15:54:40.599Z,1.00
2018-12-21T15:59:43.683Z,0.90
2018-12-21T16:04:45.895Z,0.90
2018-12-21T16:09:48.322Z,1.00
2018-12-21T16:14:51.285Z,0.90
2018-12-21T16:19:53.377Z,1.07
2018-12-21T16:24:56.419Z,0.70
2018-12-21T16:29:58.833Z,1.00
2018-12-21T16:35:01.165Z,0.80
2018-12-21T16:40:04.505Z,1.00
2018-12-21T16:45:08.925Z,1.00
2018-12-21T16:50:12.577Z,1.20
2018-12-21T16:55:15.789Z,0.97
2018-12-21T17:00:17.926Z,1.20
2018-12-21T17:05:20.222Z,1.10
2018-12-21T17:10:23.366Z,1.10
2018-12-21T17:15:25.862Z,0.60
2018-12-21T17:20:28.162Z,1.20
2018-12-21T17:25:31.030Z,1.00
2018-12-21T17:30:33.186Z,1.10
2018-12-21T17:35:37.500Z,1.10
2018-12-21T17:40:39.669Z,1.40
2018-12-21T17:45:43.042Z,1.37
2018-12-21T17:50:45.245Z,1.00
2018-12-21T17:55:47.507Z,0.97
2018-12-21T18:00:49.774Z,1.07
2018-12-21T18:05:51.938Z,1.10
2018-12-21T18:10:54.111Z,1.00
2018-12-21T18:15:56.288Z,1.00
2018-12-21T18:20:58.379Z,0.90
2018-12-21T18:26:00.450Z,1.10
2018-12-21T18:31:16.093Z,1.23
2018-12-21T18:36:35.481Z,1.00
2018-12-21T18:41:37.749Z,0.93
2018-12-21T18:46:39.926Z,0.70
2018-12-21T18:51:42.100Z,0.90
2018-12-21T18:57:01.067Z,1.10
2018-12-21T19:02:03.327Z,1.10
2018-12-21T19:07:05.782Z,1.00
2018-12-21T19:12:07.869Z,1.10
2018-12-21T19:17:09.981Z,1.10
2018-12-21T19:22:12.306Z,1.13
2018-12-21T19:27:14.454Z,1.17
2018-12-21T19:32:16.598Z,1.73
2018-12-21T19:37:18.961Z,1.50
2018-12-21T19:42:21.118Z,1.43
2018-12-21T19:47:23.295Z,1.30
2018-12-21T19:52:25.534Z,1.90
2018-12-21T19:57:27.588Z,1.63
2018-12-21T20:02:29.633Z,1.90
2018-12-21T20:07:32.011Z,1.47
2018-12-21T20:12:34.368Z,1.40
2018-12-21T20:17:36.553Z,2.40
2018-12-21T20:22:39.772Z,2.10
2018-12-21T20:27:41.957Z,2.03
2018-12-21T20:32:44.146Z,2.00
2018-12-21T20:37:46.449Z,2.07
2018-12-21T20:42:48.517Z,2.67
2018-12-21T20:47:50.591Z,2.80
2018-12-21T20:52:52.639Z,3.37
2018-12-21T20:58:00.949Z,2.57
2018-12-21T21:03:03.230Z,2.97
2018-12-21T21:08:05.310Z,3.23
2018-12-21T21:13:07.353Z,3.27
2018-12-21T21:18:09.567Z,3.43
2018-12-21T21:23:12.017Z,4.10
2018-12-21T21:28:14.832Z,4.10
2018-12-21T21:33:16.878Z,3.67
2018-12-21T21:38:18.995Z,4.57
2018-12-21T21:43:21.041Z,3.73
2018-12-21T21:48:23.202Z,3.73
2018-12-21T21:53:25.455Z,4.73
2018-12-21T21:58:27.497Z,4.63
2018-12-21T22:03:29.665Z,3.57
2018-12-21T22:08:31.902Z,3.97
2018-12-21T22:13:35.337Z,3.60
2018-12-21T22:18:37.713Z,3.77
2018-12-21T22:23:39.913Z,3.50
2018-12-21T22:28:42.051Z,3.17
2018-12-21T22:33:44.087Z,4.03
2018-12-21T22:38:46.265Z,3.90
2018-12-21T22:43:48.326Z,3.67
2018-12-21T22:48:50.743Z,3.73
2018-12-21T22:53:53.029Z,4.50
2018-12-21T22:58:55.089Z,4.30
2018-12-21T23:03:57.150Z,4.20
2018-12-21T23:08:59.221Z,3.87
2018-12-21T23:14:01.494Z,4.47
2018-12-21T23:19:03.814Z,3.83
2018-12-21T23:24:05.850Z,3.20
2018-12-21T23:29:08.142Z,3.30
2018-12-21T23:34:10.397Z,3.57
2018-12-21T23:39:12.433Z,4.90
2018-12-21T23:44:14.606Z,3.87
2018-12-21T23:49:16.923Z,3.87
2018-12-21T23:54:19.538Z,3.40
2018-12-21T23:59:21.613Z,3.30
